createdAt,value
2019-01-27T00:00:07.343Z,3.00
2019-01-27T00:01:07.860Z,3.00
2019-01-27T00:02:07.421Z,3.00
2019-01-27T00:03:05.415Z,3.00
2019-01-27T00:04:08.101Z,3.00
2019-01-27T00:05:05.104Z,3.00
2019-01-27T00:06:05.239Z,3.00
2019-01-27T00:07:05.415Z,3.00
2019-01-27T00:08:13.398Z,3.00
2019-01-27T00:09:04.668Z,3.00
2019-01-27T00:10:04.743Z,3.00
2019-01-27T00:11:04.780Z,3.00
2019-01-27T00:12:04.831Z,3.00
2019-01-27T00:13:04.934Z,3.00
2019-01-27T00:14:05.102Z,3.00
2019-01-27T00:15:05.153Z,3.00
2019-01-27T00:16:05.261Z,3.00
2019-01-27T00:17:05.440Z,3.00
2019-01-27T00:18:05.635Z,3.00
2019-01-27T00:19:04.804Z,3.00
2019-01-27T00:20:04.857Z,3.00
2019-01-27T00:21:04.982Z,3.00
2019-01-27T00:22:07.607Z,3.00
2019-01-27T00:23:05.509Z,3.00
2019-01-27T00:24:05.612Z,3.10
2019-01-27T00:25:04.669Z,3.00
2019-01-27T00:26:05.038Z,3.00
2019-01-27T00:27:07.751Z,3.00
2019-01-27T00:28:09.932Z,3.00
2019-01-27T00:29:04.961Z,3.10
2019-01-27T00:30:05.405Z,3.00
2019-01-27T00:31:05.555Z,3.10
2019-01-27T00:32:05.641Z,3.00
2019-01-27T00:33:04.700Z,3.10
2019-01-27T00:34:04.954Z,3.00
2019-01-27T00:35:05.102Z,3.10
2019-01-27T00:36:05.268Z,3.10
2019-01-27T00:37:05.329Z,3.00
2019-01-27T00:38:05.480Z,3.10
2019-01-27T00:39:05.695Z,3.10
2019-01-27T00:40:04.918Z,3.10
2019-01-27T00:41:07.624Z,3.10
2019-01-27T00:42:08.117Z,3.10
2019-01-27T00:43:05.008Z,3.10
2019-01-27T00:44:07.667Z,3.10
2019-01-27T00:45:08.276Z,3.10
2019-01-27T00:46:05.417Z,3.10
2019-01-27T00:47:08.256Z,3.10
2019-01-27T00:48:05.241Z,3.10
2019-01-27T00:49:05.299Z,3.10
2019-01-27T00:50:07.394Z,3.10
2019-01-27T00:51:05.311Z,3.00
2019-01-27T00:52:08.115Z,3.10
2019-01-27T00:53:05.171Z,3.00
2019-01-27T00:54:05.249Z,3.10
2019-01-27T00:55:05.313Z,3.10
2019-01-27T00:56:05.469Z,3.10
2019-01-27T00:57:08.078Z,3.10
2019-01-27T00:58:07.534Z,3.10
2019-01-27T00:59:08.063Z,3.10
2019-01-27T01:00:05.100Z,3.10
2019-01-27T01:01:07.755Z,3.10
2019-01-27T01:02:04.668Z,3.10
2019-01-27T01:03:07.319Z,3.10
2019-01-27T01:04:07.720Z,3.10
2019-01-27T01:05:07.282Z,3.10
2019-01-27T01:06:05.227Z,3.10
2019-01-27T01:07:05.392Z,3.10
2019-01-27T01:08:07.930Z,3.10
2019-01-27T01:09:07.407Z,3.10
2019-01-27T01:10:10.795Z,3.10
2019-01-27T01:11:04.852Z,3.10
2019-01-27T01:12:05.050Z,3.20
2019-01-27T01:13:05.166Z,3.20
2019-01-27T01:14:05.245Z,3.10
2019-01-27T01:15:05.316Z,3.20
2019-01-27T01:16:05.517Z,3.20
2019-01-27T01:17:05.584Z,3.20
2019-01-27T01:18:04.675Z,3.20
2019-01-27T01:19:04.707Z,3.20
2019-01-27T01:20:04.719Z,3.20
2019-01-27T01:21:04.837Z,3.20
2019-01-27T01:22:04.952Z,3.20
2019-01-27T01:23:05.044Z,3.20
2019-01-27T01:24:05.104Z,3.20
2019-01-27T01:25:05.124Z,3.20
2019-01-27T01:26:07.699Z,3.20
2019-01-27T01:27:05.804Z,3.10
2019-01-27T01:28:07.431Z,3.20
2019-01-27T01:29:05.486Z,3.10
2019-01-27T01:30:04.907Z,3.20
2019-01-27T01:31:05.030Z,3.20
2019-01-27T01:32:07.811Z,3.20
2019-01-27T01:33:04.786Z,3.20
2019-01-27T01:34:07.408Z,3.20
2019-01-27T01:35:05.290Z,3.20
2019-01-27T01:36:05.316Z,3.20
2019-01-27T01:37:05.483Z,3.10
2019-01-27T01:38:05.634Z,3.20
2019-01-27T01:39:04.718Z,3.20
2019-01-27T01:40:04.900Z,3.20
2019-01-27T01:41:04.991Z,3.20
2019-01-27T01:42:05.139Z,3.20
2019-01-27T01:43:05.319Z,3.20
2019-01-27T01:44:05.461Z,3.20
2019-01-27T01:45:08.160Z,3.20
2019-01-27T01:46:05.138Z,3.20
2019-01-27T01:47:05.327Z,3.20
2019-01-27T01:48:05.456Z,3.20
2019-01-27T01:49:05.708Z,3.20
2019-01-27T01:50:07.506Z,3.20
2019-01-27T01:51:08.093Z,3.20
2019-01-27T01:52:05.045Z,3.10
2019-01-27T01:53:07.726Z,3.10
2019-01-27T01:54:07.324Z,3.10
2019-01-27T01:55:05.337Z,3.10
2019-01-27T01:56:05.301Z,3.10
2019-01-27T01:57:05.395Z,3.10
2019-01-27T01:58:08.172Z,3.10
2019-01-27T01:59:05.177Z,3.10
2019-01-27T02:00:07.770Z,3.10
2019-01-27T02:01:07.511Z,3.10
2019-01-27T02:02:05.552Z,3.10
2019-01-27T02:03:07.289Z,3.10
2019-01-27T02:04:05.326Z,3.00
2019-01-27T02:05:05.409Z,3.10
2019-01-27T02:06:05.491Z,3.10
2019-01-27T02:07:05.538Z,3.10
2019-01-27T02:08:05.668Z,3.00
2019-01-27T02:09:04.781Z,3.00
2019-01-27T02:10:04.932Z,3.00
2019-01-27T02:11:05.042Z,3.00
2019-01-27T02:12:05.112Z,3.00
2019-01-27T02:13:05.183Z,3.00
2019-01-27T02:14:13.307Z,3.00
2019-01-27T02:15:08.041Z,3.10
2019-01-27T02:16:07.541Z,3.10
2019-01-27T02:17:08.041Z,3.10
2019-01-27T02:18:05.245Z,3.00
2019-01-27T02:19:07.891Z,3.10
2019-01-27T02:20:04.900Z,3.10
2019-01-27T02:21:04.978Z,3.10
2019-01-27T02:22:05.103Z,3.10
2019-01-27T02:23:07.728Z,3.10
2019-01-27T02:24:05.654Z,3.10
2019-01-27T02:25:04.732Z,3.10
2019-01-27T02:26:07.345Z,3.10
2019-01-27T02:27:07.782Z,3.10
2019-01-27T02:28:07.354Z,3.20
2019-01-27T02:29:05.280Z,3.20
2019-01-27T02:30:05.680Z,3.10
2019-01-27T02:31:04.713Z,3.10
2019-01-27T02:32:04.884Z,3.20
2019-01-27T02:33:07.671Z,3.20
2019-01-27T02:34:08.204Z,3.20
2019-01-27T02:35:05.189Z,3.10
2019-01-27T02:36:05.348Z,3.20
2019-01-27T02:37:05.516Z,3.10
2019-01-27T02:38:05.632Z,3.20
2019-01-27T02:39:04.744Z,3.10
2019-01-27T02:40:07.429Z,3.20
2019-01-27T02:41:05.373Z,3.20
2019-01-27T02:42:07.942Z,3.20
2019-01-27T02:43:04.859Z,3.20
2019-01-27T02:44:05.062Z,3.20
2019-01-27T02:45:05.331Z,3.20
2019-01-27T02:46:05.445Z,3.20
2019-01-27T02:47:08.143Z,3.20
2019-01-27T02:48:10.186Z,3.20
2019-01-27T02:49:05.104Z,3.20
2019-01-27T02:50:05.221Z,3.20
2019-01-27T02:51:05.329Z,3.10
2019-01-27T02:52:05.409Z,3.20
2019-01-27T02:53:05.530Z,3.20
2019-01-27T02:54:08.124Z,3.10
2019-01-27T02:55:07.724Z,3.10
2019-01-27T02:56:08.142Z,3.10
2019-01-27T02:57:05.156Z,3.10
2019-01-27T02:58:07.838Z,3.10
2019-01-27T02:59:04.769Z,3.10
2019-01-27T03:00:04.901Z,3.10
2019-01-27T03:01:07.524Z,3.10
2019-01-27T03:02:05.446Z,3.10
2019-01-27T03:03:08.303Z,3.10
2019-01-27T03:04:07.788Z,3.10
2019-01-27T03:05:04.683Z,3.10
2019-01-27T03:06:13.399Z,3.00
2019-01-27T03:07:08.046Z,3.10
2019-01-27T03:08:04.991Z,3.10
2019-01-27T03:09:07.559Z,3.10
2019-01-27T03:10:07.933Z,3.10
2019-01-27T03:11:04.853Z,3.10
2019-01-27T03:12:09.991Z,3.10
2019-01-27T03:13:05.186Z,3.10
2019-01-27T03:14:05.265Z,3.10
2019-01-27T03:15:05.347Z,3.10
2019-01-27T03:16:08.004Z,3.10
2019-01-27T03:17:05.059Z,3.00
2019-01-27T03:18:05.319Z,3.10
2019-01-27T03:19:08.043Z,3.10
2019-01-27T03:20:07.529Z,3.00
2019-01-27T03:21:05.638Z,3.10
2019-01-27T03:22:07.303Z,3.10
2019-01-27T03:23:05.254Z,3.00
2019-01-27T03:24:05.475Z,3.10
2019-01-27T03:25:05.664Z,3.10
2019-01-27T03:26:07.366Z,3.10
2019-01-27T03:27:05.362Z,3.00
2019-01-27T03:28:10.523Z,3.00
2019-01-27T03:29:05.472Z,3.10
2019-01-27T03:30:05.604Z,3.10
2019-01-27T03:31:07.298Z,3.10
2019-01-27T03:32:05.264Z,3.10
2019-01-27T03:33:07.892Z,3.10
2019-01-27T03:34:04.830Z,3.00
2019-01-27T03:35:04.924Z,3.10
2019-01-27T03:36:07.551Z,3.10
2019-01-27T03:37:08.102Z,3.10
2019-01-27T03:38:07.682Z,3.10
2019-01-27T03:39:04.708Z,3.10
2019-01-27T03:40:04.880Z,3.10
2019-01-27T03:41:07.441Z,3.20
2019-01-27T03:42:05.526Z,3.20
2019-01-27T03:43:04.695Z,3.20
2019-01-27T03:44:04.780Z,3.20
2019-01-27T03:45:04.848Z,3.20
2019-01-27T03:46:07.526Z,3.20
2019-01-27T03:47:05.519Z,3.20
2019-01-27T03:48:08.353Z,3.20
2019-01-27T03:49:05.446Z,3.20
2019-01-27T03:50:08.201Z,3.20
2019-01-27T03:51:05.249Z,3.20
2019-01-27T03:52:05.409Z,3.20
2019-01-27T03:53:05.619Z,3.20
2019-01-27T03:54:07.281Z,3.20
2019-01-27T03:55:05.270Z,3.20
2019-01-27T03:56:05.412Z,3.20
2019-01-27T03:57:05.575Z,3.20
2019-01-27T03:58:07.162Z,3.20
2019-01-27T03:59:05.177Z,3.20
2019-01-27T04:00:04.719Z,3.20
2019-01-27T04:01:04.881Z,3.20
2019-01-27T04:02:05.105Z,3.20
2019-01-27T04:03:05.253Z,3.20
2019-01-27T04:04:05.346Z,3.20
2019-01-27T04:05:05.539Z,3.20
2019-01-27T04:06:04.797Z,3.20
2019-01-27T04:07:04.915Z,3.20
2019-01-27T04:08:05.006Z,3.20
2019-01-27T04:09:05.067Z,3.20
2019-01-27T04:10:10.233Z,3.20
2019-01-27T04:11:07.801Z,3.20
2019-01-27T04:12:04.789Z,3.20
2019-01-27T04:13:04.873Z,3.20
2019-01-27T04:14:10.046Z,3.20
2019-01-27T04:15:04.969Z,3.20
2019-01-27T04:16:05.253Z,3.20
2019-01-27T04:17:04.710Z,3.20
2019-01-27T04:18:05.089Z,3.20
2019-01-27T04:19:07.759Z,3.20
2019-01-27T04:20:07.310Z,3.20
2019-01-27T04:21:05.317Z,3.20
2019-01-27T04:22:05.574Z,3.20
2019-01-27T04:23:04.734Z,3.20
2019-01-27T04:24:07.450Z,3.20
2019-01-27T04:25:05.562Z,3.20
2019-01-27T04:26:05.675Z,3.20
2019-01-27T04:27:04.774Z,3.20
2019-01-27T04:28:04.901Z,3.20
2019-01-27T04:29:05.028Z,3.10
2019-01-27T04:30:05.487Z,3.20
2019-01-27T04:31:05.703Z,3.20
2019-01-27T04:32:04.841Z,3.20
2019-01-27T04:33:05.133Z,3.20
2019-01-27T04:34:05.440Z,3.20
2019-01-27T04:35:08.263Z,3.20
2019-01-27T04:36:05.388Z,3.20
2019-01-27T04:37:08.134Z,3.20
2019-01-27T04:38:10.188Z,3.20
2019-01-27T04:39:05.122Z,3.20
2019-01-27T04:40:07.761Z,3.20
2019-01-27T04:41:04.797Z,3.20
2019-01-27T04:42:04.932Z,3.20
2019-01-27T04:43:05.106Z,3.20
2019-01-27T04:44:07.667Z,3.20
2019-01-27T04:45:05.761Z,3.10
2019-01-27T04:46:05.078Z,3.20
2019-01-27T04:47:05.392Z,3.20
2019-01-27T04:48:08.168Z,3.20
2019-01-27T04:49:05.166Z,3.20
2019-01-27T04:50:05.668Z,3.20
2019-01-27T04:51:04.710Z,3.20
2019-01-27T04:52:07.409Z,3.20
2019-01-27T04:53:05.440Z,3.20
2019-01-27T04:54:05.682Z,3.20
2019-01-27T04:55:07.483Z,3.20
2019-01-27T04:56:07.967Z,3.20
2019-01-27T04:57:07.620Z,3.20
2019-01-27T04:58:08.205Z,3.20
2019-01-27T04:59:05.377Z,3.20
2019-01-27T05:00:05.726Z,3.20
2019-01-27T05:01:04.959Z,3.20
2019-01-27T05:02:07.702Z,3.20
2019-01-27T05:03:04.710Z,3.20
2019-01-27T05:04:07.439Z,3.30
2019-01-27T05:05:08.015Z,3.30
2019-01-27T05:06:07.514Z,3.30
2019-01-27T05:07:08.049Z,3.30
2019-01-27T05:08:05.118Z,3.30
2019-01-27T05:09:05.126Z,3.30
2019-01-27T05:10:07.855Z,3.30
2019-01-27T05:11:04.949Z,3.30
2019-01-27T05:12:05.144Z,3.30
2019-01-27T05:13:05.337Z,3.30
2019-01-27T05:14:05.598Z,3.30
2019-01-27T05:15:04.795Z,3.30
2019-01-27T05:16:07.435Z,3.30
2019-01-27T05:17:05.442Z,3.30
2019-01-27T05:18:08.080Z,3.30
2019-01-27T05:19:10.227Z,3.30
2019-01-27T05:20:07.804Z,3.30
2019-01-27T05:21:04.718Z,3.30
2019-01-27T05:22:07.343Z,3.30
2019-01-27T05:23:07.883Z,3.30
2019-01-27T05:24:07.331Z,3.30
2019-01-27T05:25:05.671Z,3.30
2019-01-27T05:26:04.769Z,3.30
2019-01-27T05:27:04.884Z,3.30
2019-01-27T05:28:05.075Z,3.30
2019-01-27T05:29:05.552Z,3.30
2019-01-27T05:30:04.934Z,3.30
2019-01-27T05:31:05.324Z,3.30
2019-01-27T05:32:05.467Z,3.30
2019-01-27T05:33:05.566Z,3.30
2019-01-27T05:34:07.347Z,3.30
2019-01-27T05:35:05.338Z,3.30
2019-01-27T05:36:05.452Z,3.30
2019-01-27T05:37:08.286Z,3.30
2019-01-27T05:38:07.790Z,3.30
2019-01-27T05:39:04.748Z,3.30
2019-01-27T05:40:05.004Z,3.30
2019-01-27T05:41:05.150Z,3.20
2019-01-27T05:42:05.244Z,3.20
2019-01-27T05:43:05.543Z,3.20
2019-01-27T05:44:05.639Z,3.20
2019-01-27T05:45:04.704Z,3.20
2019-01-27T05:46:06.607Z,3.20
2019-01-27T05:47:11.132Z,3.20
2019-01-27T05:48:05.218Z,3.20
2019-01-27T05:49:15.433Z,3.20
2019-01-27T05:50:07.873Z,3.20
2019-01-27T05:51:07.396Z,3.20
2019-01-27T05:52:05.391Z,3.20
2019-01-27T05:53:05.605Z,3.20
2019-01-27T05:54:04.694Z,3.20
2019-01-27T05:55:04.797Z,3.20
2019-01-27T05:56:07.507Z,3.20
2019-01-27T05:57:05.588Z,3.20
2019-01-27T05:58:04.699Z,3.20
2019-01-27T05:59:04.801Z,3.20
2019-01-27T06:00:07.558Z,3.20
2019-01-27T06:01:10.631Z,3.30
2019-01-27T06:02:08.232Z,3.20
2019-01-27T06:03:05.368Z,3.20
2019-01-27T06:04:05.549Z,3.20
2019-01-27T06:05:08.297Z,3.20
2019-01-27T06:06:05.319Z,3.20
2019-01-27T06:07:05.382Z,3.20
2019-01-27T06:08:05.639Z,3.20
2019-01-27T06:09:04.792Z,3.20
2019-01-27T06:10:04.909Z,3.20
2019-01-27T06:11:04.974Z,3.20
2019-01-27T06:12:05.124Z,3.20
2019-01-27T06:13:07.947Z,3.20
2019-01-27T06:14:04.985Z,3.20
2019-01-27T06:15:07.680Z,3.20
2019-01-27T06:16:05.641Z,3.20
2019-01-27T06:17:04.918Z,3.20
2019-01-27T06:18:07.592Z,3.20
2019-01-27T06:19:05.597Z,3.20
2019-01-27T06:20:07.315Z,3.20
2019-01-27T06:21:05.394Z,3.20
2019-01-27T06:22:08.115Z,3.20
2019-01-27T06:23:07.737Z,3.20
2019-01-27T06:24:04.726Z,3.20
2019-01-27T06:25:04.876Z,3.20
2019-01-27T06:26:07.471Z,3.20
2019-01-27T06:27:05.380Z,3.20
2019-01-27T06:28:05.528Z,3.20
2019-01-27T06:29:04.676Z,3.20
2019-01-27T06:30:04.852Z,3.20
2019-01-27T06:31:05.291Z,3.20
2019-01-27T06:32:07.907Z,3.20
2019-01-27T06:33:04.839Z,3.20
2019-01-27T06:34:04.992Z,3.20
2019-01-27T06:35:05.176Z,3.30
2019-01-27T06:36:07.810Z,3.20
2019-01-27T06:37:04.770Z,3.20
2019-01-27T06:38:07.573Z,3.30
2019-01-27T06:39:05.575Z,3.20
2019-01-27T06:40:04.681Z,3.20
2019-01-27T06:41:04.748Z,3.20
2019-01-27T06:42:04.965Z,3.20
2019-01-27T06:43:13.577Z,3.20
2019-01-27T06:44:07.213Z,3.20
2019-01-27T06:45:05.141Z,3.20
2019-01-27T06:46:05.303Z,3.20
2019-01-27T06:47:05.438Z,3.20
2019-01-27T06:48:08.105Z,3.20
2019-01-27T06:49:05.274Z,3.20
2019-01-27T06:50:05.356Z,3.20
2019-01-27T06:51:04.911Z,3.20
2019-01-27T06:52:05.122Z,3.30
2019-01-27T06:53:07.763Z,3.20
2019-01-27T06:54:09.856Z,3.20
2019-01-27T06:55:07.405Z,3.20
2019-01-27T06:56:05.383Z,3.20
2019-01-27T06:57:05.659Z,3.20
2019-01-27T06:58:07.361Z,3.20
2019-01-27T06:59:05.285Z,3.20
2019-01-27T07:00:07.955Z,3.20
2019-01-27T07:01:07.463Z,3.20
2019-01-27T07:02:05.460Z,3.20
2019-01-27T07:03:05.614Z,3.20
2019-01-27T07:04:09.961Z,3.20
2019-01-27T07:05:04.969Z,3.20
2019-01-27T07:06:05.031Z,3.20
2019-01-27T07:07:07.645Z,3.30
2019-01-27T07:08:05.723Z,3.20
2019-01-27T07:09:07.532Z,3.20
2019-01-27T07:10:05.635Z,3.20
2019-01-27T07:11:04.743Z,3.20
2019-01-27T07:12:04.993Z,3.20
2019-01-27T07:13:07.707Z,3.20
2019-01-27T07:14:04.708Z,3.20
2019-01-27T07:15:04.939Z,3.20
2019-01-27T07:16:05.050Z,3.20
2019-01-27T07:17:05.162Z,3.20
2019-01-27T07:18:07.745Z,3.20
2019-01-27T07:19:07.319Z,3.20
2019-01-27T07:20:05.254Z,3.20
2019-01-27T07:21:07.953Z,3.20
2019-01-27T07:22:07.436Z,3.20
2019-01-27T07:23:05.506Z,3.20
2019-01-27T07:24:08.276Z,3.30
2019-01-27T07:25:05.411Z,3.20
2019-01-27T07:26:08.067Z,3.20
2019-01-27T07:27:04.962Z,3.30
2019-01-27T07:28:07.685Z,3.20
2019-01-27T07:29:04.790Z,3.20
2019-01-27T07:30:04.890Z,3.20
2019-01-27T07:31:07.537Z,3.20
2019-01-27T07:32:05.506Z,3.20
2019-01-27T07:33:05.712Z,3.20
2019-01-27T07:34:04.986Z,3.30
2019-01-27T07:35:07.657Z,3.20
2019-01-27T07:36:10.636Z,3.20
2019-01-27T07:37:08.264Z,3.20
2019-01-27T07:38:05.228Z,3.20
2019-01-27T07:39:08.165Z,3.20
2019-01-27T07:40:10.158Z,3.20
2019-01-27T07:41:05.129Z,3.20
2019-01-27T07:42:05.193Z,3.30
2019-01-27T07:43:05.261Z,3.30
2019-01-27T07:44:07.882Z,3.20
2019-01-27T07:45:04.825Z,3.30
2019-01-27T07:46:07.495Z,3.30
2019-01-27T07:47:08.056Z,3.30
2019-01-27T07:48:05.078Z,3.30
2019-01-27T07:49:05.143Z,3.30
2019-01-27T07:50:05.241Z,3.30
2019-01-27T07:51:05.486Z,3.30
2019-01-27T07:52:07.302Z,3.30
2019-01-27T07:53:07.747Z,3.30
2019-01-27T07:54:07.356Z,3.30
2019-01-27T07:55:07.998Z,3.40
2019-01-27T07:56:04.964Z,3.30
2019-01-27T07:57:05.139Z,3.30
2019-01-27T07:58:05.489Z,3.40
2019-01-27T07:59:04.710Z,3.40
2019-01-27T08:00:04.966Z,3.40
2019-01-27T08:01:07.838Z,3.40
2019-01-27T08:02:04.941Z,3.40
2019-01-27T08:03:11.717Z,3.40
2019-01-27T08:04:07.214Z,3.40
2019-01-27T08:05:05.148Z,3.40
2019-01-27T08:06:05.265Z,3.40
2019-01-27T08:07:07.991Z,3.40
2019-01-27T08:08:05.067Z,3.40
2019-01-27T08:09:05.303Z,3.50
2019-01-27T08:10:07.960Z,3.50
2019-01-27T08:11:07.483Z,3.50
2019-01-27T08:12:05.567Z,3.50
2019-01-27T08:13:07.282Z,3.50
2019-01-27T08:14:05.370Z,3.50
2019-01-27T08:15:05.552Z,3.50
2019-01-27T08:16:07.194Z,3.50
2019-01-27T08:17:05.272Z,3.50
2019-01-27T08:18:05.492Z,3.50
2019-01-27T08:19:04.810Z,3.50
2019-01-27T08:20:08.022Z,3.50
2019-01-27T08:21:05.034Z,3.60
2019-01-27T08:22:05.232Z,3.50
2019-01-27T08:23:05.552Z,3.60
2019-01-27T08:24:04.733Z,3.50
2019-01-27T08:25:04.788Z,3.60
2019-01-27T08:26:05.002Z,3.60
2019-01-27T08:27:07.775Z,3.60
2019-01-27T08:28:07.292Z,3.60
2019-01-27T08:29:05.306Z,3.60
2019-01-27T08:30:05.437Z,3.60
2019-01-27T08:31:05.515Z,3.60
2019-01-27T08:32:08.216Z,3.60
2019-01-27T08:33:05.318Z,3.60
2019-01-27T08:34:05.541Z,3.60
2019-01-27T08:35:04.653Z,3.60
2019-01-27T08:36:07.267Z,3.60
2019-01-27T08:37:07.930Z,3.70
2019-01-27T08:38:07.362Z,3.70
2019-01-27T08:39:05.376Z,3.70
2019-01-27T08:40:05.454Z,3.60
2019-01-27T08:41:05.541Z,3.70
2019-01-27T08:42:08.183Z,3.70
2019-01-27T08:43:07.934Z,3.70
2019-01-27T08:44:07.394Z,3.70
2019-01-27T08:45:07.878Z,3.70
2019-01-27T08:46:04.801Z,3.70
2019-01-27T08:47:07.606Z,3.70
2019-01-27T08:48:05.613Z,3.80
2019-01-27T08:49:04.672Z,3.80
2019-01-27T08:50:07.347Z,3.80
2019-01-27T08:51:05.293Z,3.80
2019-01-27T08:52:05.471Z,3.80
2019-01-27T08:53:04.828Z,3.80
2019-01-27T08:54:04.961Z,3.80
2019-01-27T08:55:05.042Z,3.80
2019-01-27T08:56:05.135Z,3.80
2019-01-27T08:57:07.714Z,3.90
2019-01-27T08:58:05.565Z,3.80
2019-01-27T08:59:05.681Z,3.90
2019-01-27T09:00:04.844Z,3.90
2019-01-27T09:01:10.290Z,3.90
2019-01-27T09:02:05.331Z,3.90
2019-01-27T09:03:07.981Z,3.90
2019-01-27T09:04:07.530Z,4.00
2019-01-27T09:05:05.595Z,3.90
2019-01-27T09:06:04.886Z,3.90
2019-01-27T09:07:07.649Z,4.00
2019-01-27T09:08:08.119Z,4.10
2019-01-27T09:09:07.640Z,4.10
2019-01-27T09:10:05.747Z,4.10
2019-01-27T09:11:04.919Z,4.10
2019-01-27T09:12:05.031Z,4.20
2019-01-27T09:13:11.134Z,4.20
2019-01-27T09:14:05.645Z,4.20
2019-01-27T09:15:04.774Z,4.20
2019-01-27T09:16:07.443Z,4.30
2019-01-27T09:17:05.421Z,4.30
2019-01-27T09:18:05.671Z,4.30
2019-01-27T09:19:04.915Z,4.30
2019-01-27T09:20:07.576Z,4.30
2019-01-27T09:21:05.564Z,4.30
2019-01-27T09:22:07.274Z,4.30
2019-01-27T09:23:07.827Z,4.40
2019-01-27T09:24:04.826Z,4.40
2019-01-27T09:25:07.533Z,4.40
2019-01-27T09:26:08.047Z,4.40
2019-01-27T09:27:05.001Z,4.40
2019-01-27T09:28:05.209Z,4.40
2019-01-27T09:29:07.845Z,4.40
2019-01-27T09:30:04.911Z,4.40
2019-01-27T09:31:05.077Z,4.50
2019-01-27T09:32:07.739Z,4.50
2019-01-27T09:33:07.260Z,4.40
2019-01-27T09:34:05.172Z,4.40
2019-01-27T09:35:10.368Z,4.40
2019-01-27T09:36:08.120Z,4.40
2019-01-27T09:37:07.836Z,4.40
2019-01-27T09:38:07.377Z,4.40
2019-01-27T09:39:07.916Z,4.40
2019-01-27T09:40:04.814Z,4.40
2019-01-27T09:41:07.417Z,4.40
2019-01-27T09:42:10.439Z,4.40
2019-01-27T09:43:07.896Z,4.40
2019-01-27T09:44:09.901Z,4.40
2019-01-27T09:45:04.888Z,4.40
2019-01-27T09:46:07.792Z,4.40
2019-01-27T09:47:08.008Z,4.40
2019-01-27T09:48:07.600Z,4.40
2019-01-27T09:49:05.619Z,4.40
2019-01-27T09:50:04.918Z,4.40
2019-01-27T09:51:07.647Z,4.40
2019-01-27T09:52:08.104Z,4.40
2019-01-27T09:53:05.138Z,4.40
2019-01-27T09:54:10.493Z,4.50
2019-01-27T09:55:08.087Z,4.60
2019-01-27T09:56:04.997Z,4.60
2019-01-27T09:57:07.626Z,4.70
2019-01-27T09:58:08.241Z,4.80
2019-01-27T09:59:07.784Z,4.80
2019-01-27T10:00:04.766Z,4.80
2019-01-27T10:01:05.146Z,4.90
2019-01-27T10:02:07.972Z,5.00
2019-01-27T10:03:07.529Z,5.00
2019-01-27T10:04:08.116Z,5.10
2019-01-27T10:05:05.257Z,5.00
2019-01-27T10:06:08.044Z,5.00
2019-01-27T10:07:07.698Z,5.10
2019-01-27T10:08:08.169Z,5.10
2019-01-27T10:09:07.715Z,5.10
2019-01-27T10:10:04.792Z,5.10
2019-01-27T10:11:07.486Z,5.20
2019-01-27T10:12:08.112Z,5.20
2019-01-27T10:13:10.580Z,5.20
2019-01-27T10:14:04.815Z,5.20
2019-01-27T10:15:05.018Z,5.20
2019-01-27T10:16:05.258Z,5.20
2019-01-27T10:17:05.582Z,5.20
2019-01-27T10:18:08.191Z,5.10
2019-01-27T10:19:05.209Z,5.10
2019-01-27T10:20:07.978Z,5.10
2019-01-27T10:21:07.673Z,5.20
2019-01-27T10:22:05.599Z,5.20
2019-01-27T10:23:10.841Z,5.20
2019-01-27T10:24:07.367Z,5.30
2019-01-27T10:25:05.284Z,5.30
2019-01-27T10:26:05.558Z,5.30
2019-01-27T10:27:08.227Z,5.40
2019-01-27T10:28:05.166Z,5.40
2019-01-27T10:29:07.973Z,5.50
2019-01-27T10:30:07.592Z,5.50
2019-01-27T10:31:05.617Z,5.50
2019-01-27T10:32:07.630Z,5.50
2019-01-27T10:33:07.245Z,5.60
2019-01-27T10:34:10.259Z,5.60
2019-01-27T10:35:05.354Z,5.60
2019-01-27T10:36:07.940Z,5.70
2019-01-27T10:37:12.132Z,5.70
2019-01-27T10:38:05.570Z,5.70
2019-01-27T10:39:08.300Z,5.80
2019-01-27T10:40:09.074Z,5.80
2019-01-27T10:41:08.114Z,5.80
2019-01-27T10:42:07.794Z,5.80
2019-01-27T10:43:07.316Z,5.80
2019-01-27T10:44:07.792Z,5.80
2019-01-27T10:45:04.822Z,5.80
2019-01-27T10:46:04.927Z,5.80
2019-01-27T10:47:05.421Z,5.80
2019-01-27T10:48:08.229Z,5.80
2019-01-27T10:49:07.976Z,5.70
2019-01-27T10:50:07.418Z,5.80
2019-01-27T10:51:05.482Z,5.70
2019-01-27T10:52:05.575Z,5.70
2019-01-27T10:53:04.817Z,5.70
2019-01-27T10:54:05.104Z,5.70
2019-01-27T10:55:05.393Z,5.60
2019-01-27T10:56:05.686Z,5.60
2019-01-27T10:57:04.778Z,5.60
2019-01-27T10:58:07.528Z,5.50
2019-01-27T10:59:05.573Z,5.60
2019-01-27T11:00:05.842Z,5.50
2019-01-27T11:01:04.898Z,5.60
2019-01-27T11:02:07.510Z,5.50
2019-01-27T11:03:07.997Z,5.50
2019-01-27T11:04:07.413Z,5.50
2019-01-27T11:05:10.417Z,5.40
2019-01-27T11:06:07.878Z,5.40
2019-01-27T11:07:07.525Z,5.40
2019-01-27T11:08:08.262Z,5.40
2019-01-27T11:09:08.070Z,5.40
2019-01-27T11:10:05.012Z,5.40
2019-01-27T11:11:05.104Z,5.40
2019-01-27T11:12:07.732Z,5.40
2019-01-27T11:13:04.716Z,5.40
2019-01-27T11:14:07.359Z,5.50
2019-01-27T11:15:07.944Z,5.50
2019-01-27T11:16:04.939Z,5.50
2019-01-27T11:17:05.294Z,5.50
2019-01-27T11:18:05.484Z,5.60
2019-01-27T11:19:10.623Z,5.60
2019-01-27T11:20:08.057Z,5.60
2019-01-27T11:21:04.986Z,5.60
2019-01-27T11:22:07.936Z,5.70
2019-01-27T11:23:13.793Z,5.70
2019-01-27T11:24:04.851Z,5.70
2019-01-27T11:25:05.089Z,5.70
2019-01-27T11:26:07.669Z,5.70
2019-01-27T11:27:10.777Z,5.70
2019-01-27T11:28:04.821Z,5.70
2019-01-27T11:29:05.000Z,5.80
2019-01-27T11:30:05.541Z,5.70
2019-01-27T11:31:07.376Z,5.80
2019-01-27T11:32:07.791Z,5.80
2019-01-27T11:33:04.743Z,5.70
2019-01-27T11:34:04.962Z,5.80
2019-01-27T11:35:07.807Z,5.80
2019-01-27T11:36:04.953Z,5.80
2019-01-27T11:37:05.102Z,5.80
2019-01-27T11:38:05.341Z,5.90
2019-01-27T11:39:05.503Z,5.90
2019-01-27T11:40:08.196Z,6.00
2019-01-27T11:41:05.245Z,6.00
2019-01-27T11:42:05.372Z,6.00
2019-01-27T11:43:05.521Z,6.00
2019-01-27T11:44:05.654Z,6.10
2019-01-27T11:45:04.735Z,6.10
2019-01-27T11:46:07.368Z,6.10
2019-01-27T11:47:07.901Z,6.10
2019-01-27T11:48:07.500Z,6.20
2019-01-27T11:49:08.119Z,6.20
2019-01-27T11:50:05.197Z,6.10
2019-01-27T11:51:05.552Z,6.20
2019-01-27T11:52:08.097Z,6.20
2019-01-27T11:53:05.160Z,6.20
2019-01-27T11:54:10.406Z,6.30
2019-01-27T11:55:08.088Z,6.30
2019-01-27T11:56:05.045Z,6.20
2019-01-27T11:57:05.599Z,6.30
2019-01-27T11:58:07.211Z,6.40
2019-01-27T11:59:05.129Z,6.30
2019-01-27T12:00:07.816Z,6.30
2019-01-27T12:01:04.690Z,6.30
2019-01-27T12:02:07.303Z,6.40
2019-01-27T12:03:05.296Z,6.40
2019-01-27T12:04:05.539Z,6.40
2019-01-27T12:05:05.654Z,6.40
2019-01-27T12:06:04.916Z,6.50
2019-01-27T12:07:05.053Z,6.50
2019-01-27T12:08:07.792Z,6.60
2019-01-27T12:09:04.827Z,6.60
2019-01-27T12:10:05.101Z,6.70
2019-01-27T12:11:05.306Z,6.70
2019-01-27T12:12:05.532Z,6.70
2019-01-27T12:13:04.693Z,6.80
2019-01-27T12:14:09.879Z,6.80
2019-01-27T12:15:07.896Z,6.90
2019-01-27T12:16:07.482Z,6.90
2019-01-27T12:17:05.490Z,6.90
2019-01-27T12:18:05.625Z,7.00
2019-01-27T12:19:07.417Z,7.00
2019-01-27T12:20:08.100Z,7.10
2019-01-27T12:21:05.097Z,7.10
2019-01-27T12:22:07.737Z,7.10
2019-01-27T12:23:04.827Z,7.10
2019-01-27T12:24:07.622Z,7.20
2019-01-27T12:25:08.158Z,7.10
2019-01-27T12:26:05.105Z,7.20
2019-01-27T12:27:05.128Z,7.10
2019-01-27T12:28:07.840Z,7.10
2019-01-27T12:29:09.798Z,7.10
2019-01-27T12:30:04.874Z,7.10
2019-01-27T12:31:05.118Z,7.10
2019-01-27T12:32:05.313Z,7.10
2019-01-27T12:33:08.035Z,7.00
2019-01-27T12:34:07.459Z,7.00
2019-01-27T12:35:08.012Z,7.00
2019-01-27T12:36:04.995Z,7.00
2019-01-27T12:37:10.189Z,6.90
2019-01-27T12:38:07.591Z,6.90
2019-01-27T12:39:08.143Z,6.90
2019-01-27T12:40:05.049Z,6.80
2019-01-27T12:41:05.094Z,6.80
2019-01-27T12:42:05.242Z,6.90
2019-01-27T12:43:07.871Z,6.90
2019-01-27T12:44:07.488Z,6.90
2019-01-27T12:45:05.439Z,6.90
2019-01-27T12:46:08.055Z,6.90
2019-01-27T12:47:04.957Z,6.90
2019-01-27T12:48:05.127Z,7.00
2019-01-27T12:49:07.728Z,7.00
2019-01-27T12:50:13.910Z,7.00
2019-01-27T12:51:04.964Z,7.00
2019-01-27T12:52:05.031Z,7.10
2019-01-27T12:53:05.081Z,7.10
2019-01-27T12:54:08.374Z,7.10
2019-01-27T12:55:07.974Z,7.10
2019-01-27T12:56:07.413Z,7.20
2019-01-27T12:57:05.390Z,7.20
2019-01-27T12:58:08.056Z,7.20
2019-01-27T12:59:05.107Z,7.20
2019-01-27T13:00:07.610Z,7.20
2019-01-27T13:01:08.258Z,7.20
2019-01-27T13:02:05.181Z,7.20
2019-01-27T13:03:07.775Z,7.20
2019-01-27T13:04:04.722Z,7.20
2019-01-27T13:05:04.788Z,7.20
2019-01-27T13:06:04.979Z,7.20
2019-01-27T13:07:05.103Z,7.20
2019-01-27T13:08:05.266Z,7.20
2019-01-27T13:09:07.909Z,7.20
2019-01-27T13:10:04.755Z,7.20
2019-01-27T13:11:05.764Z,7.20
2019-01-27T13:12:07.529Z,7.20
2019-01-27T13:13:11.975Z,7.20
2019-01-27T13:14:05.545Z,7.20
2019-01-27T13:15:05.729Z,7.20
2019-01-27T13:16:04.891Z,7.20
2019-01-27T13:17:07.479Z,7.20
2019-01-27T13:18:08.150Z,7.20